createdAt,value
2022-09-15T05:11:12.635Z,99290.88
2022-09-15T05:14:00.360Z,99285.94
2022-09-15T05:16:47.669Z,99296.63
2022-09-15T05:19:35.297Z,99307.28
2022-09-15T05:22:22.647Z,99313.47
2022-09-15T05:25:10.484Z,99317.91
2022-09-15T05:27:57.706Z,99330.00
2022-09-15T05:30:44.949Z,99330.94
2022-09-15T05:33:32.593Z,99335.72
2022-09-15T05:36:23.712Z,99350.13
2022-09-15T05:39:11.031Z,99349.38
2022-09-15T05:41:58.352Z,99365.44
2022-09-15T05:44:45.651Z,99364.75
2022-09-15T05:47:32.888Z,99374.06
2022-09-15T05:50:20.355Z,99375.63
2022-09-15T05:53:08.194Z,99390.91
2022-09-15T05:55:57.229Z,99393.66
2022-09-15T05:58:46.725Z,99402.88
2022-09-15T06:01:34.162Z,99412.28
2022-09-15T06:04:21.501Z,99406.06
2022-09-15T06:07:08.758Z,99429.03
2022-09-15T06:09:56.170Z,99440.66
2022-09-15T06:12:43.731Z,99435.31
2022-09-15T06:15:31.656Z,99447.81
2022-09-15T06:18:18.939Z,99458.69
2022-09-15T06:21:12.865Z,99462.69
2022-09-15T06:24:07.041Z,99478.47
2022-09-15T06:26:54.860Z,99500.16
2022-09-15T06:29:42.420Z,99514.91
2022-09-15T06:32:30.138Z,99524.66
2022-09-15T06:35:17.718Z,99530.25
2022-09-15T06:38:04.944Z,99541.56
2022-09-15T06:40:59.321Z,99545.97
2022-09-15T06:43:49.098Z,99556.91
2022-09-15T06:46:36.469Z,99583.28
2022-09-15T06:49:24.130Z,99592.31
2022-09-15T06:52:11.458Z,99594.56
2022-09-15T06:54:58.727Z,99613.63
2022-09-15T06:57:46.454Z,99611.47
2022-09-15T07:00:34.045Z,99614.88
2022-09-15T07:03:21.487Z,99631.88
2022-09-15T07:06:10.096Z,99646.06
2022-09-15T07:08:58.902Z,99664.03
2022-09-15T07:11:46.201Z,99675.69
2022-09-15T07:14:33.480Z,99689.34
2022-09-15T07:17:20.759Z,99691.78
2022-09-15T07:20:09.736Z,99712.56
2022-09-15T07:23:57.849Z,99733.16
2022-09-15T07:26:45.176Z,99751.75
2022-09-15T07:29:37.137Z,99777.69
2022-09-15T07:32:25.868Z,99804.88
2022-09-15T07:35:13.208Z,99822.88
2022-09-15T07:38:01.043Z,99843.81
2022-09-15T07:40:49.155Z,99861.38
2022-09-15T07:43:36.751Z,99872.50
2022-09-15T07:46:25.312Z,99874.88
2022-09-15T07:49:13.067Z,99900.13
2022-09-15T07:52:00.853Z,99872.19
2022-09-15T07:54:48.227Z,99847.97
2022-09-15T07:57:35.950Z,99840.00
2022-09-15T08:00:23.226Z,99857.25
2022-09-15T08:03:12.604Z,99861.44
2022-09-15T08:06:01.429Z,99863.88
2022-09-15T08:08:53.978Z,99857.53
2022-09-15T08:11:44.367Z,99858.97
2022-09-15T08:14:32.909Z,99879.28
2022-09-15T08:17:20.215Z,99911.16
2022-09-15T08:20:07.790Z,99919.25
2022-09-15T08:22:55.075Z,99908.16
2022-09-15T08:25:42.381Z,99915.63
2022-09-15T08:28:30.002Z,99916.31
2022-09-15T08:31:18.204Z,99916.66
2022-09-15T08:34:07.292Z,99929.66
2022-09-15T08:36:54.569Z,99935.22
2022-09-15T08:39:41.855Z,99958.66
2022-09-15T08:42:30.863Z,99958.19
2022-09-15T08:45:26.297Z,99978.22
2022-09-15T08:48:17.459Z,100000.72
2022-09-15T08:51:12.100Z,100024.44
2022-09-15T08:54:10.895Z,100033.06
2022-09-15T08:57:00.495Z,100027.03
2022-09-15T08:59:47.751Z,100051.78
2022-09-15T09:02:51.319Z,100051.28
2022-09-15T09:05:43.289Z,100058.88
2022-09-15T09:08:48.824Z,100085.25
2022-09-15T09:12:10.799Z,100074.66
2022-09-15T09:15:19.915Z,100079.22
2022-09-15T09:18:41.924Z,100088.03
2022-09-15T09:21:37.814Z,100101.50
2022-09-15T09:24:31.209Z,100097.09
2022-09-15T09:27:23.472Z,100095.31
2022-09-15T09:30:14.549Z,100122.34
2022-09-15T09:33:30.247Z,100112.47
2022-09-15T09:36:17.743Z,100127.84
2022-09-15T09:39:05.244Z,100124.53
2022-09-15T09:41:54.100Z,100148.78
2022-09-15T09:44:41.625Z,100148.28
2022-09-15T09:47:29.760Z,100151.41
2022-09-15T09:50:39.191Z,100139.19
2022-09-15T09:53:33.742Z,100134.00
2022-09-15T09:56:26.083Z,100129.84
2022-09-15T09:59:33.951Z,100131.31
2022-09-15T10:02:29.193Z,100122.56
2022-09-15T10:05:20.296Z,100131.09
2022-09-15T10:08:14.531Z,100133.13
2022-09-15T10:11:07.867Z,100149.28
2022-09-15T10:13:56.391Z,100150.22
2022-09-15T10:16:44.144Z,100136.81
2022-09-15T10:19:35.223Z,100155.09
2022-09-15T10:22:33.124Z,100166.56
2022-09-15T10:25:20.436Z,100175.41
2022-09-15T10:28:18.119Z,100162.56
2022-09-15T10:31:24.212Z,100174.75
2022-09-15T10:34:31.220Z,100142.22
2022-09-15T10:37:31.279Z,100137.78
2022-09-15T10:40:51.911Z,100088.59
2022-09-15T10:44:13.209Z,100007.25
2022-09-15T10:47:26.763Z,99955.06
2022-09-15T10:50:31.064Z,99894.44
2022-09-15T10:53:57.366Z,99836.91
2022-09-15T10:56:49.517Z,99772.25
2022-09-15T10:59:43.333Z,99756.91
2022-09-15T11:02:55.312Z,99736.97
2022-09-15T11:05:57.794Z,99720.31
2022-09-15T11:08:48.190Z,99705.72
2022-09-15T11:12:20.411Z,99694.72
2022-09-15T11:15:30.184Z,99699.00
2022-09-15T11:19:03.884Z,99690.84
2022-09-15T11:21:59.444Z,99750.31
2022-09-15T11:24:59.212Z,99781.59
2022-09-15T11:27:54.009Z,99850.47
2022-09-15T11:30:58.307Z,99939.19
2022-09-15T11:33:55.230Z,99967.50
2022-09-15T11:37:05.148Z,99991.47
2022-09-15T11:40:06.285Z,99969.53
2022-09-15T11:43:00.573Z,99997.97
2022-09-15T11:45:53.187Z,100013.16
2022-09-15T11:48:42.729Z,100065.03
2022-09-15T11:51:38.754Z,100092.13
2022-09-15T11:54:37.372Z,100115.91
2022-09-15T11:57:36.645Z,100121.47
2022-09-15T12:00:24.058Z,100144.84
2022-09-15T12:03:34.692Z,100149.19
2022-09-15T12:06:30.463Z,100136.28
2022-09-15T12:09:19.534Z,100128.59
2022-09-15T12:12:13.491Z,100120.00
2022-09-15T12:15:02.143Z,100131.94
2022-09-15T12:18:37.319Z,100144.16
2022-09-15T12:21:39.818Z,100139.53
2022-09-15T12:24:45.984Z,100153.03
2022-09-15T12:27:33.330Z,100161.97
2022-09-15T12:30:41.118Z,100158.78
2022-09-15T12:34:07.215Z,100154.50
2022-09-15T12:37:06.434Z,100164.75
2022-09-15T12:39:54.201Z,100180.13
2022-09-15T12:42:45.888Z,100192.03
2022-09-15T12:45:35.248Z,100208.66
2022-09-15T12:48:32.511Z,100211.97
2022-09-15T12:51:27.964Z,100217.13
2022-09-15T12:54:24.159Z,100220.56
2022-09-15T12:57:24.763Z,100220.78
2022-09-15T13:00:20.908Z,100230.88
2022-09-15T13:03:28.535Z,100220.25
2022-09-15T13:06:26.119Z,100229.28
2022-09-15T13:09:28.254Z,100229.75
2022-09-15T13:12:19.295Z,100238.31
2022-09-15T13:15:14.618Z,100225.31
2022-09-15T13:18:05.583Z,100230.41
2022-09-15T13:20:59.826Z,100235.25
2022-09-15T13:23:51.791Z,100232.97
2022-09-15T13:26:44.325Z,100232.03
2022-09-15T13:29:33.125Z,100228.44
2022-09-15T13:32:57.009Z,100215.44
2022-09-15T13:36:15.258Z,100214.66
2022-09-15T13:39:11.538Z,100211.56
2022-09-15T13:42:08.347Z,100207.84
2022-09-15T13:45:12.080Z,100211.38
2022-09-15T13:48:17.217Z,100198.47
2022-09-15T13:51:22.679Z,100199.88
2022-09-15T13:54:18.931Z,100204.50
2022-09-15T13:57:08.078Z,100193.72
2022-09-15T13:59:55.557Z,100182.03
2022-09-15T14:05:35.853Z,100182.13
2022-09-15T14:08:29.499Z,100193.78
2022-09-15T14:11:23.456Z,100176.81
2022-09-15T14:14:34.745Z,100181.19
2022-09-15T14:17:27.330Z,100208.63
2022-09-15T14:20:31.235Z,100203.75
2022-09-15T14:23:18.506Z,100198.00
2022-09-15T14:26:12.711Z,100211.66
2022-09-15T14:29:03.466Z,100247.63
2022-09-15T14:31:51.990Z,100216.69
2022-09-15T14:34:41.912Z,100160.00
2022-09-15T14:37:32.159Z,100067.66
2022-09-15T14:40:29.214Z,100045.88
2022-09-15T14:43:35.645Z,99985.16
2022-09-15T14:46:23.038Z,99946.81
2022-09-15T14:49:16.610Z,99937.28
2022-09-15T14:52:04.202Z,99946.69
2022-09-15T14:54:56.271Z,99903.16
2022-09-15T14:57:51.668Z,99953.53
2022-09-15T15:01:00.305Z,99966.72
2022-09-15T15:04:02.795Z,99966.47
2022-09-15T15:06:55.981Z,100072.84
2022-09-15T15:09:50.271Z,100141.03
2022-09-15T15:12:42.035Z,100159.09
2022-09-15T15:15:31.465Z,100166.22
2022-09-15T15:18:36.142Z,100179.09
2022-09-15T15:21:41.565Z,100168.63
2022-09-15T15:24:29.469Z,100188.75
2022-09-15T15:27:32.357Z,100186.28
2022-09-15T15:30:30.674Z,100176.75
2022-09-15T15:33:27.480Z,100167.00
2022-09-15T15:36:15.085Z,100149.88
2022-09-15T15:39:06.222Z,100172.41
2022-09-15T15:42:02.665Z,100164.69
2022-09-15T15:45:00.269Z,100155.38
2022-09-15T15:47:47.606Z,100192.47
2022-09-15T15:50:35.927Z,100210.94
2022-09-15T15:53:24.425Z,100215.19
2022-09-15T15:56:12.943Z,100209.69
2022-09-15T15:59:00.541Z,100195.81
2022-09-15T16:01:51.183Z,100197.31
2022-09-15T16:04:38.552Z,100193.81
2022-09-15T16:07:29.943Z,100176.03
2022-09-15T16:10:23.063Z,100180.13
2022-09-15T16:13:15.186Z,100187.78
2022-09-15T16:16:03.505Z,100193.56
2022-09-15T16:18:51.242Z,100192.97
2022-09-15T16:21:42.225Z,100206.63
2022-09-15T16:24:29.853Z,100204.38
2022-09-15T16:27:18.332Z,100190.31
2022-09-15T16:30:08.265Z,100179.69
2022-09-15T16:32:56.219Z,100170.06
2022-09-15T16:36:03.852Z,100138.16
2022-09-15T16:38:51.190Z,100115.34
2022-09-15T16:41:39.410Z,100093.03
2022-09-15T16:44:27.598Z,100092.81
2022-09-15T16:47:14.929Z,100085.13
2022-09-15T16:50:03.722Z,100087.59
2022-09-15T16:52:51.715Z,100100.13
2022-09-15T16:55:43.186Z,100106.03
2022-09-15T16:58:31.255Z,100092.94
2022-09-15T17:01:20.814Z,100099.50
2022-09-15T17:04:19.244Z,100093.69
2022-09-15T17:07:06.511Z,100091.44
2022-09-15T17:09:53.795Z,100084.13
2022-09-15T17:12:41.784Z,100082.34
2022-09-15T17:15:34.072Z,100076.69
2022-09-15T17:18:22.437Z,100068.81
2022-09-15T17:21:11.508Z,100059.44
2022-09-15T17:23:58.953Z,100054.69
2022-09-15T17:26:46.217Z,100046.84
2022-09-15T17:29:33.460Z,100026.25
2022-09-15T17:32:20.737Z,100032.69
2022-09-15T17:35:25.734Z,100023.59
2022-09-15T17:38:13.966Z,100017.91
2022-09-15T17:41:01.414Z,100023.53
2022-09-15T17:43:49.336Z,100028.97
2022-09-15T17:46:36.771Z,100035.25
2022-09-15T17:49:24.445Z,100024.69
2022-09-15T17:52:11.748Z,100013.28
2022-09-15T17:55:01.212Z,100017.00
2022-09-15T17:57:49.954Z,100007.16
2022-09-15T18:00:39.973Z,100004.81
2022-09-15T18:03:30.212Z,100000.50
2022-09-15T18:06:17.863Z,99999.72
2022-09-15T18:09:05.185Z,99994.63
2022-09-15T18:14:39.701Z,99999.00
2022-09-15T18:17:27.064Z,99991.47
2022-09-15T18:20:16.951Z,99995.34
2022-09-15T18:23:04.604Z,99990.88
2022-09-15T18:25:52.335Z,100002.44
2022-09-15T18:28:40.204Z,99992.84
2022-09-15T18:31:27.920Z,100001.44
2022-09-15T18:34:15.190Z,99991.06
2022-09-15T18:37:02.935Z,99987.22
2022-09-15T18:39:50.563Z,99982.78
2022-09-15T18:42:39.071Z,99984.72
2022-09-15T18:45:26.618Z,99980.88
2022-09-15T18:48:13.889Z,99980.44
2022-09-15T18:51:01.368Z,99978.88
2022-09-15T18:53:53.421Z,99983.59
2022-09-15T18:56:41.732Z,99977.38
2022-09-15T18:59:28.960Z,99982.13
2022-09-15T19:02:16.445Z,99972.06
2022-09-15T19:05:04.504Z,99972.06
2022-09-15T19:07:52.100Z,99973.66
2022-09-15T19:10:42.439Z,99979.16
2022-09-15T19:13:30.199Z,99975.63
2022-09-15T19:16:20.167Z,99976.09
2022-09-15T19:19:10.221Z,99984.50
2022-09-15T19:21:57.639Z,99978.88
2022-09-15T19:24:44.964Z,99975.22
2022-09-15T19:27:32.886Z,99976.41
2022-09-15T19:30:20.464Z,99969.66
2022-09-15T19:33:07.941Z,99972.78
2022-09-15T19:36:10.587Z,99968.50
2022-09-15T19:39:03.710Z,99968.72
2022-09-15T19:41:51.536Z,99963.56
2022-09-15T19:44:39.035Z,99957.25
2022-09-15T19:47:26.472Z,99952.50
2022-09-15T19:50:14.097Z,99939.66
2022-09-15T19:53:01.401Z,99940.81
2022-09-15T19:55:50.872Z,99934.72
2022-09-15T19:58:38.440Z,99928.06
2022-09-15T20:01:28.670Z,99917.13
2022-09-15T20:04:16.370Z,99921.16
2022-09-15T20:07:03.866Z,99920.63
2022-09-15T20:09:53.278Z,99908.13
2022-09-15T20:12:40.757Z,99899.97
2022-09-15T20:15:29.422Z,99904.72
2022-09-15T20:18:17.278Z,99903.91
2022-09-15T20:21:10.398Z,99889.59
2022-09-15T20:24:00.386Z,99882.75
2022-09-15T20:26:48.501Z,99874.34
2022-09-15T20:29:35.986Z,99864.31
2022-09-15T20:32:28.145Z,99863.88
2022-09-15T20:35:16.327Z,99835.25
2022-09-15T20:38:03.690Z,99816.78
2022-09-15T20:40:55.081Z,99822.81
2022-09-15T20:43:43.557Z,99824.16
2022-09-15T20:46:31.467Z,99842.03
2022-09-15T20:49:19.059Z,99861.53
2022-09-15T20:52:06.564Z,99854.09
2022-09-15T20:54:54.067Z,99856.22
2022-09-15T20:57:41.492Z,99844.84
2022-09-15T21:00:33.205Z,99834.69
2022-09-15T21:03:23.069Z,99825.91
2022-09-15T21:06:22.177Z,99825.13
2022-09-15T21:09:09.569Z,99819.94
2022-09-15T21:11:57.123Z,99816.66
2022-09-15T21:14:44.492Z,99808.13
2022-09-15T21:17:31.863Z,99811.81
2022-09-15T21:20:19.205Z,99810.81
2022-09-15T21:23:07.393Z,99821.50
2022-09-15T21:26:03.050Z,99828.34
2022-09-15T21:28:51.144Z,99829.84
2022-09-15T21:31:38.404Z,99835.56
2022-09-15T21:34:26.446Z,99832.63
2022-09-15T21:37:14.550Z,99838.25
2022-09-15T21:40:03.182Z,99829.25
2022-09-15T21:42:50.530Z,99838.13
2022-09-15T21:45:37.896Z,99834.53
2022-09-15T21:48:27.512Z,99819.75
2022-09-15T21:51:24.262Z,99807.94
2022-09-15T21:54:12.158Z,99814.13
2022-09-15T21:56:59.672Z,99811.00
2022-09-15T21:59:46.995Z,99809.59
2022-09-15T22:02:34.341Z,99795.53
2022-09-15T22:05:21.679Z,99792.47
2022-09-15T22:08:10.574Z,99777.63
2022-09-15T22:11:01.068Z,99771.56
2022-09-15T22:13:48.603Z,99768.06
2022-09-15T22:16:40.323Z,99759.66
2022-09-15T22:19:27.774Z,99759.19
2022-09-15T22:22:15.228Z,99761.09
2022-09-15T22:25:02.848Z,99752.31
2022-09-15T22:27:50.162Z,99735.50
2022-09-15T22:30:37.479Z,99747.00
2022-09-15T22:33:25.048Z,99747.44
2022-09-15T22:36:14.319Z,99738.88
2022-09-15T22:39:06.014Z,99742.03
2022-09-15T22:41:53.467Z,99742.03
2022-09-15T22:44:40.651Z,99732.56
2022-09-15T22:47:28.013Z,99730.19
2022-09-15T22:50:15.705Z,99728.97
2022-09-15T22:53:03.319Z,99725.00
2022-09-15T22:55:51.790Z,99723.44
2022-09-15T22:58:42.559Z,99712.50
2022-09-15T23:01:30.798Z,99713.41
2022-09-15T23:04:18.119Z,99715.91
2022-09-15T23:07:05.966Z,99708.91
2022-09-15T23:09:53.358Z,99714.09
2022-09-15T23:12:40.862Z,99713.00
2022-09-15T23:15:28.779Z,99711.66
2022-09-15T23:18:16.149Z,99712.78
2022-09-15T23:21:09.447Z,99711.66
2022-09-15T23:23:57.327Z,99703.19
2022-09-15T23:26:44.648Z,99696.56
2022-09-15T23:29:31.924Z,99697.03
2022-09-15T23:32:19.218Z,99698.69
2022-09-15T23:35:07.009Z,99690.94
2022-09-15T23:37:54.334Z,99696.34
2022-09-15T23:40:42.789Z,99693.66
2022-09-15T23:43:30.101Z,99694.66
2022-09-15T23:46:17.927Z,99693.72
2022-09-15T23:49:05.777Z,99686.41
2022-09-15T23:51:53.397Z,99684.28
2022-09-15T23:54:40.634Z,99691.16
2022-09-15T23:57:27.942Z,99697.53
